Time;durP1;ratioP1;P1;durP2;ratioP2;P2;SDS_P1;SDS_P2;PMS_P1;PMS_P2;Temp;Humidity;BMP_temperature;BMP_pressure;BME280_temperature;BME280_humidity;BME280_pressure;Samples;Min_cycle;Max_cycle;Signal;HPM_P1;HPM_P2
2022/11/23 00:03:15;;;;;;;7.67;2.97;;;;;;;7.98;53.46;98581.59;10391523;28;20649;-43
2022/11/23 00:08:17;;;;;;;5.57;3.10;;;;;;;8.10;53.53;98557.91;10390490;28;20244;-43
2022/11/23 00:13:18;;;;;;;8.67;3.37;;;;;;;8.36;53.45;98545.72;10396036;28;20651;-43
2022/11/23 00:18:20;;;;;;;5.27;3.10;;;;;;;9.30;51.27;98568.03;10401221;28;20892;-42
2022/11/23 00:23:22;;;;;;;4.40;2.80;;;;;;;8.32;52.32;98539.97;10400875;28;20244;-43
2022/11/23 00:28:23;;;;;;;4.40;3.17;;;;;;;7.42;54.36;98558.47;10394705;28;20713;-42
2022/11/23 00:33:25;;;;;;;4.87;3.27;;;;;;;6.47;56.39;98536.53;10397061;28;20250;-43
2022/11/23 00:38:27;;;;;;;4.63;2.87;;;;;;;6.67;56.63;98552.69;10398658;28;20237;-41
2022/11/23 00:43:29;;;;;;;11.47;3.20;;;;;;;7.18;54.88;98525.97;10393141;28;20240;-43
2022/11/23 00:48:32;;;;;;;4.80;2.70;;;;;;;7.72;54.40;98507.69;10400177;28;20235;-44
2022/11/23 00:53:35;;;;;;;4.07;3.03;;;;;;;6.75;56.10;98535.78;10392616;28;20713;-45
2022/11/23 00:58:40;;;;;;;4.53;2.70;;;;;;;6.70;55.73;98532.88;10392044;28;20229;-43
2022/11/23 01:03:44;;;;;;;4.87;2.77;;;;;;;6.23;56.87;98548.34;10398975;28;20590;-43
2022/11/23 01:08:51;;;;;;;3.30;2.90;;;;;;;7.25;55.85;98504.72;10394324;28;20229;-42
2022/11/23 01:13:53;;;;;;;5.57;3.00;;;;;;;7.12;55.10;98505.47;10397508;28;20243;-43
2022/11/23 01:18:56;;;;;;;3.40;2.97;;;;;;;6.98;54.99;98507.19;10389092;28;20229;-44
2022/11/23 01:23:58;;;;;;;6.30;3.10;;;;;;;6.75;55.36;98519.84;10400482;28;20247;-44
2022/11/23 01:29:00;;;;;;;3.00;2.63;;;;;;;6.68;55.37;98516.28;10394123;28;20246;-44
2022/11/23 01:34:03;;;;;;;8.53;2.80;;;;;;;6.89;55.48;98528.81;10393596;28;20228;-44
2022/11/23 01:39:05;;;;;;;5.73;2.63;;;;;;;6.57;55.28;98541.56;10392576;28;20235;-44
2022/11/23 01:44:24;;;;;;;3.83;2.63;;;;;;;8.79;51.95;98529.38;10396382;28;20327;-45
2022/11/23 01:49:30;;;;;;;4.53;3.10;;;;;;;7.09;53.21;98543.09;10394465;28;20243;-44
2022/11/23 01:54:47;;;;;;;3.67;2.53;;;;;;;7.80;53.94;98525.38;10395536;28;20229;-45
2022/11/23 01:59:50;;;;;;;6.23;3.43;;;;;;;7.64;53.76;98545.13;10398910;28;20224;-44
2022/11/23 02:04:54;;;;;;;7.17;2.80;;;;;;;7.32;55.32;98540.19;10394084;28;20236;-44
2022/11/23 02:09:55;;;;;;;5.57;3.00;;;;;;;7.89;54.75;98534.84;10396143;28;20668;-43
2022/11/23 02:14:57;;;;;;;8.60;3.53;;;;;;;7.18;55.45;98539.28;10385431;28;20232;-44
2022/11/23 02:20:09;;;;;;;7.13;3.50;;;;;;;7.65;54.40;98510.31;10397785;28;20232;-44
2022/11/23 02:25:43;;;;;;;5.43;3.23;;;;;;;7.27;54.73;98526.63;10394985;28;20228;-44
2022/11/23 02:30:48;;;;;;;7.63;3.33;;;;;;;7.10;56.07;98536.75;10361760;28;20640;-45
2022/11/23 02:35:53;;;;;;;9.57;3.33;;;;;;;6.34;57.69;98520.44;10390032;28;20256;-46
2022/11/23 02:40:55;;;;;;;3.83;3.00;;;;;;;6.11;58.15;98521.44;10382051;28;20211;-44
2022/11/23 02:46:00;;;;;;;6.87;3.57;;;;;;;6.31;58.06;98523.47;10397212;28;20232;-44
2022/11/23 02:51:01;;;;;;;5.77;3.50;;;;;;;6.70;57.51;98504.47;10390866;28;20240;-44
2022/11/23 02:56:03;;;;;;;3.37;2.80;;;;;;;6.74;56.97;98473.00;10387604;28;20240;-44
2022/11/23 03:01:05;;;;;;;7.07;3.47;;;;;;;6.69;56.61;98488.72;10390865;28;20240;-44
2022/11/23 03:06:07;;;;;;;4.57;3.03;;;;;;;6.89;56.21;98464.97;10385851;28;20248;-42
2022/11/23 03:11:09;;;;;;;5.20;3.30;;;;;;;6.86;56.14;98505.25;10390572;28;20231;-44
2022/11/23 03:16:10;;;;;;;7.50;4.30;;;;;;;6.65;56.35;98482.09;10392536;28;20240;-44
2022/11/23 03:21:12;;;;;;;3.37;3.07;;;;;;;5.85;57.67;98496.16;10390363;28;20232;-44
2022/11/23 03:26:14;;;;;;;8.97;3.20;;;;;;;6.66;56.32;98492.56;10396140;28;20232;-44
2022/11/23 03:31:15;;;;;;;4.30;3.37;;;;;;;6.74;56.43;98489.78;10392411;28;20235;-44
2022/11/23 03:36:17;;;;;;;5.63;3.20;;;;;;;6.77;56.62;98477.97;10393302;28;20722;-44
2022/11/23 03:41:19;;;;;;;5.33;3.23;;;;;;;6.94;55.38;98463.38;10387433;28;20750;-44
2022/11/23 03:46:20;;;;;;;5.70;2.67;;;;;;;6.10;57.29;98503.84;10392653;28;20257;-44
2022/11/23 03:51:22;;;;;;;7.00;3.10;;;;;;;6.62;56.09;98501.94;10400435;28;20235;-44
2022/11/23 03:56:24;;;;;;;4.73;3.17;;;;;;;5.75;57.91;98489.50;10403222;28;20239;-44
2022/11/23 04:01:26;;;;;;;7.03;3.10;;;;;;;6.59;56.46;98500.47;10399843;28;20237;-44
2022/11/23 04:06:27;;;;;;;6.80;3.00;;;;;;;6.54;55.75;98494.91;10398953;28;20343;-45
2022/11/23 04:11:29;;;;;;;5.20;3.07;;;;;;;6.65;55.05;98492.75;10403501;28;20713;-44
2022/11/23 04:16:31;;;;;;;4.33;2.80;;;;;;;7.99;53.88;98465.22;10400952;28;20247;-44
2022/11/23 04:21:33;;;;;;;7.43;3.20;;;;;;;6.81;54.84;98496.00;10403178;28;20236;-44
2022/11/23 04:26:34;;;;;;;6.10;2.70;;;;;;;7.06;54.15;98476.16;10397463;28;20236;-44
2022/11/23 04:31:36;;;;;;;7.00;3.37;;;;;;;8.78;51.40;98493.09;10398194;28;20694;-44
2022/11/23 04:36:38;;;;;;;6.97;3.20;;;;;;;9.32;50.34;98536.63;10394828;28;20236;-44
2022/11/23 04:41:40;;;;;;;4.43;3.00;;;;;;;7.57;52.69;98529.09;10392742;28;20366;-44
2022/11/23 04:46:42;;;;;;;4.57;3.20;;;;;;;6.84;54.05;98529.38;10390421;28;20705;-44
2022/11/23 04:51:43;;;;;;;11.10;4.77;;;;;;;7.47;53.64;98536.63;10391310;28;20228;-44
2022/11/23 04:56:45;;;;;;;8.73;4.40;;;;;;;7.44;53.49;98524.53;10397361;28;20621;-44
2022/11/23 05:01:47;;;;;;;5.77;3.70;;;;;;;7.71;52.33;98504.22;10391768;28;20234;-44
2022/11/23 05:06:49;;;;;;;8.00;4.90;;;;;;;8.38;51.13;98511.66;10394475;28;20240;-45
2022/11/23 05:11:50;;;;;;;6.97;4.77;;;;;;;8.78;50.04;98549.91;10385167;28;20231;-44
2022/11/23 05:16:52;;;;;;;4.70;3.27;;;;;;;9.11;49.97;98575.00;10388721;28;20232;-44
2022/11/23 05:21:54;;;;;;;5.50;2.77;;;;;;;9.18;49.09;98574.00;10393383;28;20220;-44
2022/11/23 05:26:55;;;;;;;3.50;2.63;;;;;;;10.44;47.07;98636.28;10399345;28;20251;-44
2022/11/23 05:31:57;;;;;;;7.63;3.10;;;;;;;10.18;47.03;98625.69;10394044;28;20738;-44
2022/11/23 05:36:59;;;;;;;5.97;3.20;;;;;;;10.15;46.69;98630.41;10397738;28;20228;-44
2022/11/23 05:42:01;;;;;;;5.30;2.90;;;;;;;9.15;47.70;98600.28;10394828;28;20228;-44
2022/11/23 05:47:03;;;;;;;5.07;2.80;;;;;;;8.16;49.83;98597.06;10415256;28;20232;-44
2022/11/23 05:52:05;;;;;;;5.67;3.10;;;;;;;8.45;50.37;98603.16;10389531;28;20243;-44
2022/11/23 05:57:06;;;;;;;6.50;3.43;;;;;;;9.10;48.88;98592.88;10397176;28;20240;-44
2022/11/23 06:02:08;;;;;;;7.63;3.50;;;;;;;7.89;50.51;98604.09;10397122;28;20611;-44
2022/11/23 06:07:10;;;;;;;7.73;3.73;;;;;;;8.25;50.39;98597.72;10394211;28;20239;-45
2022/11/23 06:12:12;;;;;;;7.07;3.40;;;;;;;7.93;50.71;98594.69;10396446;28;20660;-44
2022/11/23 06:17:14;;;;;;;6.23;3.10;;;;;;;8.87;49.02;98595.09;10398398;28;20240;-44
2022/11/23 06:22:15;;;;;;;5.97;4.00;;;;;;;8.73;48.92;98621.72;10391859;28;20233;-44
2022/11/23 06:27:17;;;;;;;5.93;3.67;;;;;;;9.21;48.37;98626.97;10391667;28;20789;-44
2022/11/23 06:32:19;;;;;;;5.67;2.90;;;;;;;10.07;46.20;98638.69;10396954;28;20261;-44
2022/11/23 06:37:21;;;;;;;4.67;2.97;;;;;;;10.32;45.64;98657.50;10393263;28;20229;-44
2022/11/23 06:42:23;;;;;;;7.07;3.07;;;;;;;10.25;45.54;98666.59;10398164;28;20228;-44
2022/11/23 06:47:40;;;;;;;8.10;4.17;;;;;;;9.52;46.11;98648.78;10391234;28;20323;-44
2022/11/23 06:52:41;;;;;;;15.87;8.23;;;;;;;9.95;46.22;98659.03;10393536;28;20261;-44
2022/11/23 06:57:43;;;;;;;5.97;4.50;;;;;;;8.78;47.45;98642.44;10389757;28;20258;-44
2022/11/23 07:02:52;;;;;;;6.97;3.10;;;;;;;8.47;48.12;98647.25;10386731;28;20240;-44
2022/11/23 07:07:54;;;;;;;6.83;3.60;;;;;;;8.92;47.88;98656.69;10386079;28;20251;-44
2022/11/23 07:13:03;;;;;;;6.30;4.10;;;;;;;9.89;46.55;98662.56;10391759;28;20237;-44
2022/11/23 07:18:05;;;;;;;10.23;3.60;;;;;;;10.28;45.34;98683.03;10398620;28;20235;-44
2022/11/23 07:23:10;;;;;;;7.77;3.43;;;;;;;8.73;47.86;98667.06;10398182;28;20622;-44
2022/11/23 07:28:13;;;;;;;6.30;3.10;;;;;;;8.12;49.88;98667.78;10402067;28;20240;-44
2022/11/23 07:33:14;;;;;;;9.43;3.20;;;;;;;9.15;48.67;98657.13;10402710;28;20279;-44
2022/11/23 07:38:16;;;;;;;13.83;9.60;;;;;;;9.87;46.28;98653.91;10392163;28;20207;-44
2022/11/23 07:43:18;;;;;;;15.03;9.00;;;;;;;8.81;47.56;98664.22;10394492;28;20237;-44
2022/11/23 07:48:19;;;;;;;11.17;7.67;;;;;;;10.18;45.15;98671.16;10401522;28;20606;-44
2022/11/23 07:53:22;;;;;;;11.97;8.73;;;;;;;9.80;46.77;98664.56;10401506;28;20232;-45
2022/11/23 07:58:24;;;;;;;8.67;6.93;;;;;;;10.39;45.56;98681.56;10404495;28;20228;-44
2022/11/23 08:03:26;;;;;;;7.90;5.90;;;;;;;10.79;45.19;98691.34;10397971;28;20271;-44
2022/11/23 08:08:29;;;;;;;22.00;16.23;;;;;;;10.21;45.83;98663.53;10399962;28;20295;-44
2022/11/23 08:13:33;;;;;;;33.40;21.80;;;;;;;10.77;45.38;98680.84;10398201;28;20746;-45
2022/11/23 08:18:35;;;;;;;27.13;13.37;;;;;;;8.39;50.12;98642.09;10398110;28;20607;-45
2022/11/23 08:23:37;;;;;;;15.03;8.50;;;;;;;8.56;50.31;98626.56;10401213;28;20236;-44
2022/11/23 08:28:38;;;;;;;15.30;8.17;;;;;;;10.99;45.68;98649.25;10401054;28;20718;-45
2022/11/23 08:33:40;;;;;;;9.17;5.93;;;;;;;10.32;46.97;98635.31;10397845;28;20240;-44
2022/11/23 08:38:42;;;;;;;10.60;4.40;;;;;;;8.16;50.25;98607.72;10396261;28;20224;-44
2022/11/23 08:43:44;;;;;;;9.37;3.93;;;;;;;8.60;49.80;98611.00;10392177;28;20242;-44
2022/11/23 08:48:45;;;;;;;8.23;4.80;;;;;;;11.12;46.29;98613.56;10396916;28;20239;-44
2022/11/23 08:53:48;;;;;;;5.73;4.00;;;;;;;10.97;46.62;98618.38;10400306;28;20229;-44
2022/11/23 08:58:50;;;;;;;10.03;4.30;;;;;;;10.72;46.90;98610.25;10403757;28;20247;-44
2022/11/23 09:03:53;;;;;;;4.20;3.17;;;;;;;9.81;47.69;98609.31;10394448;28;20247;-45
2022/11/23 09:08:55;;;;;;;7.43;3.33;;;;;;;10.57;47.32;98579.25;10395587;28;20241;-44
2022/11/23 09:13:57;;;;;;;11.67;5.67;;;;;;;12.46;44.59;98626.53;10403622;28;20229;-44
2022/11/23 09:18:59;;;;;;;9.27;4.90;;;;;;;12.69;43.57;98623.19;10398424;28;20608;-44
2022/11/23 09:24:01;;;;;;;7.00;3.97;;;;;;;11.15;45.57;98596.22;10401561;28;20235;-44
2022/11/23 09:29:07;;;;;;;8.33;4.17;;;;;;;12.05;44.82;98593.16;10401555;28;20243;-44
2022/11/23 09:34:12;;;;;;;11.30;5.20;;;;;;;12.07;45.21;98593.75;10397344;28;20268;-45
2022/11/23 09:39:15;;;;;;;5.53;3.80;;;;;;;12.40;44.55;98599.78;10392058;28;20228;-44
2022/11/23 09:44:51;;;;;;;6.40;3.47;;;;;;;9.56;48.08;98551.19;10388275;28;20824;-44
2022/11/23 09:50:08;;;;;;;8.63;3.37;;;;;;;10.98;46.75;98555.78;10395396;28;20240;-44
2022/11/23 09:55:49;;;;;;;4.23;3.80;;;;;;;11.40;47.04;98545.34;10393178;28;20603;-44
2022/11/23 10:01:03;;;;;;;9.40;3.50;;;;;;;10.75;46.95;98581.25;10398204;28;20232;-44
2022/11/23 10:06:08;;;;;;;4.17;2.70;;;;;;;10.47;47.62;98578.88;10390809;28;20264;-44
2022/11/23 10:11:47;;;;;;;7.03;3.27;;;;;;;10.99;46.40;98538.69;10392948;28;20242;-44
2022/11/23 10:16:55;;;;;;;4.30;2.93;;;;;;;11.26;46.37;98510.63;10398657;28;20239;-45
2022/11/23 10:22:21;;;;;;;6.10;2.93;;;;;;;11.81;45.74;98531.34;10392984;28;20766;-45
2022/11/23 10:27:24;;;;;;;5.53;3.00;;;;;;;10.96;46.79;98545.28;10394052;28;20604;-43
2022/11/23 10:32:37;;;;;;;7.00;3.00;;;;;;;9.64;47.47;98540.28;10389684;28;20740;-44
2022/11/23 10:37:39;;;;;;;6.20;2.80;;;;;;;8.92;48.23;98453.91;10396907;28;20312;-44
2022/11/23 10:42:47;;;;;;;5.37;2.47;;;;;;;10.18;46.63;98538.28;10385298;28;20233;-44
2022/11/23 10:47:59;;;;;;;4.93;3.27;;;;;;;11.53;45.48;98485.47;10365458;28;20239;-44
2022/11/23 10:53:25;;;;;;;5.60;2.97;;;;;;;11.21;45.65;98478.34;10346964;28;20606;-44
2022/11/23 10:58:42;;;;;;;6.57;2.60;;;;;;;11.57;44.94;98466.03;10340925;28;20216;-43
2022/11/23 11:06:10;;;;;;;5.10;2.60;;;;;;;7.52;51.60;98388.59;10550157;27;21161;-68
2022/11/23 11:11:26;;;;;;;5.40;2.83;;;;;;;7.29;51.39;98386.25;10514880;27;21853;-69
2022/11/23 11:16:46;;;;;;;5.40;2.57;;;;;;;7.41;51.77;98372.38;10510745;27;20239;-68
2022/11/23 11:21:48;;;;;;;5.53;2.60;;;;;;;9.45;48.59;98355.06;10517315;27;20780;-71
2022/11/23 11:26:56;;;;;;;5.03;2.33;;;;;;;7.86;49.45;98388.75;10504016;27;20222;-71
2022/11/23 11:32:16;;;;;;;4.70;2.60;;;;;;;8.63;49.82;98374.06;10522915;28;20580;-68
2022/11/23 11:37:36;;;;;;;4.93;2.73;;;;;;;8.76;48.93;98375.94;10513209;28;20234;-68
2022/11/23 11:43:09;;;;;;;8.10;2.80;;;;;;;8.31;48.68;98383.72;10515491;27;20901;-69
2022/11/23 11:48:39;;;;;;;4.60;2.70;;;;;;;8.38;48.83;98383.72;10512767;27;20230;-69
2022/11/23 11:53:54;;;;;;;4.07;2.60;;;;;;;8.06;48.59;98399.47;10508058;27;20678;-68
2022/11/23 11:59:13;;;;;;;4.80;2.43;;;;;;;9.42;46.51;98357.31;10500254;27;20214;-68
2022/11/23 12:04:23;;;;;;;3.47;2.27;;;;;;;9.96;45.92;98369.41;10508119;27;20233;-68
2022/11/23 12:09:31;;;;;;;4.23;2.40;;;;;;;9.71;46.53;98386.16;10515156;27;20347;-68
2022/11/23 12:14:35;;;;;;;5.80;2.30;;;;;;;9.55;46.80;98416.00;10496626;27;20390;-68
2022/11/23 12:20:09;;;;;;;7.00;2.90;;;;;;;8.84;45.88;98412.22;10505746;28;20577;-68
2022/11/23 12:25:35;;;;;;;6.97;3.17;;;;;;;10.05;44.95;98381.47;10442624;28;20279;-71
2022/11/23 12:31:12;;;;;;;6.57;2.40;;;;;;;9.21;45.68;98409.94;10503328;28;20209;-70
2022/11/23 12:36:20;;;;;;;3.07;2.70;;;;;;;10.44;44.07;98360.00;10475290;28;20222;-70
2022/11/23 12:42:03;;;;;;;3.93;2.27;;;;;;;8.91;44.96;98412.25;10480579;28;20253;-70
2022/11/23 12:47:30;;;;;;;5.20;2.70;;;;;;;11.00;42.74;98371.66;10485722;28;20757;-68
2022/11/23 12:53:02;;;;;;;15.23;9.03;;;;;;;10.61;43.50;98393.19;10497183;28;20870;-68
2022/11/23 12:58:28;;;;;;;8.07;2.93;;;;;;;11.32;43.29;98376.91;10495302;28;20218;-68
2022/11/23 13:03:49;;;;;;;4.40;2.63;;;;;;;10.60;43.62;98396.91;10510973;28;20846;-68
2022/11/23 13:09:15;;;;;;;4.57;2.90;;;;;;;9.76;43.82;98414.91;10482904;28;20263;-68
2022/11/23 13:14:38;;;;;;;4.77;2.37;;;;;;;10.44;43.20;98370.72;10446321;28;20725;-68
2022/11/23 13:20:11;;;;;;;5.20;2.90;;;;;;;10.04;43.21;98385.19;10510757;28;20210;-71
2022/11/23 13:25:12;;;;;;;7.03;2.93;;;;;;;10.70;43.44;98373.16;10485230;28;20238;-71
2022/11/23 13:30:43;;;;;;;5.53;3.70;;;;;;;10.79;42.72;98373.72;10485117;28;20697;-68
2022/11/23 13:36:10;;;;;;;7.10;3.23;;;;;;;11.00;41.86;98356.44;10501381;28;20932;-70
2022/11/23 13:41:33;;;;;;;5.27;2.20;;;;;;;9.95;43.95;98405.97;10492403;28;20255;-68
2022/11/23 13:46:37;;;;;;;4.93;2.03;;;;;;;10.57;42.88;98365.25;10461558;28;20715;-68
2022/11/23 13:51:38;;;;;;;4.30;2.50;;;;;;;9.93;43.47;98370.63;10496575;28;20234;-70
2022/11/23 13:56:44;;;;;;;5.63;2.60;;;;;;;10.61;43.43;98358.41;10498882;28;20308;-67
2022/11/23 14:02:12;;;;;;;4.33;1.90;;;;;;;10.31;42.96;98350.25;10487144;28;20231;-70
2022/11/23 14:07:33;;;;;;;6.53;2.80;;;;;;;11.29;42.73;98307.72;10446473;28;20233;-69
2022/11/23 14:12:43;;;;;;;6.13;3.13;;;;;;;11.16;43.22;98292.66;10492237;28;20257;-69
2022/11/23 14:18:00;;;;;;;5.87;3.10;;;;;;;11.53;42.30;98309.47;10509967;28;20227;-69
2022/11/23 14:23:01;;;;;;;6.87;3.00;;;;;;;12.42;40.88;98289.19;10506308;28;20261;-71
2022/11/23 14:28:28;;;;;;;5.97;3.30;;;;;;;12.84;41.17;98287.22;10504381;28;20234;-67
2022/11/23 14:33:45;;;;;;;6.97;3.50;;;;;;;11.95;42.58;98255.91;10483369;28;20231;-68
2022/11/23 14:39:02;;;;;;;4.63;3.03;;;;;;;12.47;41.56;98249.91;10481572;28;20704;-68
2022/11/23 14:44:05;;;;;;;8.03;3.13;;;;;;;12.95;40.59;98272.13;10498158;28;20246;-68
2022/11/23 14:49:13;;;;;;;4.10;3.00;;;;;;;12.57;41.03;98264.59;10451908;28;20852;-70
2022/11/23 14:54:15;;;;;;;4.70;3.10;;;;;;;13.01;41.45;98278.41;10463447;28;20219;-71
2022/11/23 14:59:25;;;;;;;4.47;2.90;;;;;;;11.41;42.80;98303.25;10442473;28;20225;-67
2022/11/23 15:04:36;;;;;;;7.23;3.17;;;;;;;10.81;43.21;98287.88;10442700;28;20319;-70
2022/11/23 15:09:48;;;;;;;6.17;3.30;;;;;;;10.57;46.46;98286.88;10441690;28;20925;-68
2022/11/23 15:14:53;;;;;;;5.63;3.67;;;;;;;10.99;45.87;98292.44;10443147;28;20222;-68
2022/11/23 15:19:57;;;;;;;5.40;2.90;;;;;;;10.73;46.30;98278.28;10442086;28;20211;-68
2022/11/23 15:25:09;;;;;;;8.77;3.30;;;;;;;10.24;47.24;98242.53;10441710;28;20341;-70
2022/11/23 15:30:16;;;;;;;13.37;6.87;;;;;;;10.44;47.54;98261.06;10459347;28;20219;-70
2022/11/23 15:35:21;;;;;;;14.20;8.20;;;;;;;10.95;47.36;98267.16;10449054;28;20280;-68
2022/11/23 15:40:29;;;;;;;6.77;4.20;;;;;;;9.74;47.21;98243.34;10442825;28;20223;-70
2022/11/23 15:45:50;;;;;;;5.93;3.40;;;;;;;10.20;46.59;98278.78;10467741;28;20268;-68
2022/11/23 15:50:58;;;;;;;9.77;7.70;;;;;;;10.31;47.54;98292.25;10407794;28;20226;-70
2022/11/23 15:56:04;;;;;;;10.63;8.60;;;;;;;9.72;47.81;98272.09;10453158;28;20291;-68
2022/11/23 16:01:11;;;;;;;8.10;5.30;;;;;;;10.01;47.64;98288.59;10449231;28;20211;-64
2022/11/23 16:06:13;;;;;;;22.57;13.93;;;;;;;10.33;47.56;98295.50;10480914;28;20243;-68
2022/11/23 16:11:28;;;;;;;12.13;5.90;;;;;;;10.92;48.33;98265.75;10450531;28;20265;-65
2022/11/23 16:16:29;;;;;;;5.33;3.80;;;;;;;8.35;50.65;98214.34;10439798;28;20266;-65
2022/11/23 16:21:32;;;;;;;6.80;4.00;;;;;;;9.35;51.13;98262.06;10462760;28;20219;-67
2022/11/23 16:26:34;;;;;;;5.03;3.80;;;;;;;9.36;51.52;98260.19;10452885;28;20235;-66
2022/11/23 16:31:39;;;;;;;5.90;4.17;;;;;;;9.46;50.78;98255.22;10454810;28;20680;-64
2022/11/23 16:36:41;;;;;;;4.60;3.50;;;;;;;8.59;52.72;98249.38;10465072;28;20824;-68
2022/11/23 16:41:43;;;;;;;6.47;3.40;;;;;;;7.84;54.36;98221.16;10448397;28;20212;-67
2022/11/23 16:46:46;;;;;;;5.63;3.53;;;;;;;7.81;55.76;98221.53;10449980;28;20240;-65
2022/11/23 16:51:52;;;;;;;3.57;2.57;;;;;;;7.60;56.04;98214.56;10452502;28;20218;-67
2022/11/23 16:56:58;;;;;;;4.60;2.70;;;;;;;7.82;55.73;98214.38;10466011;28;20243;-65
2022/11/23 17:01:59;;;;;;;3.70;2.55;;;;;;;7.51;56.26;98213.13;10444528;28;20220;-66
2022/11/23 17:07:01;;;;;;;4.57;3.07;;;;;;;6.77;58.15;98185.53;10469159;28;21077;-68
2022/11/23 17:12:06;;;;;;;4.40;2.90;;;;;;;7.29;57.31;98202.66;10436955;28;20215;-66
2022/11/23 17:17:10;;;;;;;2.57;2.37;;;;;;;7.35;56.98;98230.28;10438863;28;20247;-66
2022/11/23 17:22:14;;;;;;;2.97;2.50;;;;;;;7.85;57.54;98214.00;10475511;28;20207;-65
2022/11/23 17:27:20;;;;;;;3.70;2.57;;;;;;;6.37;59.88;98220.66;10441914;28;20884;-66
2022/11/23 17:32:22;;;;;;;3.03;2.53;;;;;;;5.64;61.97;98194.38;10448853;28;20210;-67
2022/11/23 17:37:24;;;;;;;4.23;2.83;;;;;;;6.13;61.75;98211.31;10473810;28;20241;-66
2022/11/23 17:42:26;;;;;;;4.67;2.97;;;;;;;6.20;62.94;98198.88;10437705;28;20237;-67
2022/11/23 17:47:29;;;;;;;5.07;4.03;;;;;;;7.17;61.23;98191.78;10438065;28;20239;-67
2022/11/23 17:52:30;;;;;;;4.37;3.00;;;;;;;5.85;64.44;98195.34;10464644;28;20199;-67
2022/11/23 17:57:32;;;;;;;3.40;2.60;;;;;;;6.94;61.52;98201.94;10442230;28;20236;-64
2022/11/23 18:02:34;;;;;;;4.80;3.00;;;;;;;6.98;61.44;98211.97;10457848;28;20273;-66
2022/11/23 18:07:36;;;;;;;4.83;3.27;;;;;;;7.81;59.71;98197.56;10454879;28;20241;-66
2022/11/23 18:12:38;;;;;;;5.83;3.10;;;;;;;7.51;61.10;98199.81;10450152;28;20211;-66
2022/11/23 18:17:40;;;;;;;3.80;2.97;;;;;;;7.11;60.94;98244.97;10469407;28;20293;-65
2022/11/23 18:22:42;;;;;;;5.73;3.00;;;;;;;6.57;61.13;98297.84;10451814;28;20231;-68
2022/11/23 18:27:43;;;;;;;4.53;2.80;;;;;;;7.02;61.21;98291.34;10479828;28;20222;-66
2022/11/23 18:32:45;;;;;;;3.17;2.87;;;;;;;5.75;63.91;98304.50;10439483;28;20703;-62
2022/11/23 18:37:47;;;;;;;6.03;3.40;;;;;;;7.40;59.66;98315.66;10454574;28;20232;-65
2022/11/23 18:42:49;;;;;;;5.37;3.63;;;;;;;7.44;59.88;98326.72;10424332;28;20236;-65
2022/11/23 18:47:50;;;;;;;5.80;4.37;;;;;;;8.30;58.34;98315.44;10448129;28;20225;-65
2022/11/23 18:52:52;;;;;;;5.93;4.23;;;;;;;7.47;60.25;98383.03;10447801;28;20739;-65
2022/11/23 18:57:54;;;;;;;7.30;4.43;;;;;;;7.84;60.48;98366.78;10455048;28;20383;-66
2022/11/23 19:02:58;;;;;;;7.47;4.63;;;;;;;7.74;59.85;98409.78;10467080;28;20239;-66
2022/11/23 19:08:04;;;;;;;8.07;4.50;;;;;;;8.12;59.20;98435.97;10498418;28;20294;-67
2022/11/23 19:13:06;;;;;;;4.73;4.33;;;;;;;8.97;57.79;98379.41;10491248;28;20227;-67
2022/11/23 19:18:08;;;;;;;7.03;5.23;;;;;;;8.09;60.01;98471.81;10492528;28;20240;-66
2022/11/23 19:23:09;;;;;;;6.00;5.10;;;;;;;7.73;60.16;98493.38;10503112;28;20614;-64
2022/11/23 19:28:12;;;;;;;8.40;5.13;;;;;;;8.46;58.97;98468.84;10498605;28;20227;-66
2022/11/23 19:33:14;;;;;;;6.43;4.50;;;;;;;8.46;58.37;98466.16;10508829;28;20233;-67
2022/11/23 19:38:16;;;;;;;6.37;4.80;;;;;;;9.03;57.44;98477.31;10497157;28;20227;-66
2022/11/23 19:43:18;;;;;;;6.50;4.90;;;;;;;8.37;58.31;98564.16;10497021;28;20227;-66
2022/11/23 19:48:21;;;;;;;10.23;5.10;;;;;;;9.08;57.22;98548.72;10448219;28;20226;-65
2022/11/23 19:53:23;;;;;;;8.60;4.53;;;;;;;8.82;57.63;98572.47;10451019;28;20689;-66
2022/11/23 19:58:31;;;;;;;6.03;4.70;;;;;;;8.53;57.51;98628.81;10456569;28;20508;-68
2022/11/23 20:03:34;;;;;;;11.13;5.30;;;;;;;8.81;56.89;98628.72;10454917;28;20223;-66
2022/11/23 20:08:37;;;;;;;9.57;4.30;;;;;;;8.48;57.73;98670.22;10450000;28;20281;-65
2022/11/23 20:13:39;;;;;;;7.77;4.87;;;;;;;8.57;57.00;98675.38;10445301;28;20211;-66
2022/11/23 20:18:43;;;;;;;6.33;4.60;;;;;;;8.91;56.49;98687.88;10445184;28;20606;-67
2022/11/23 20:23:46;;;;;;;13.77;4.40;;;;;;;8.68;57.62;98704.16;10493285;28;20448;-69
2022/11/23 20:28:52;;;;;;;12.50;4.70;;;;;;;8.45;57.44;98707.97;10505516;28;20234;-68
2022/11/23 20:33:55;;;;;;;7.73;3.60;;;;;;;9.46;56.24;98685.09;10496338;28;20230;-67
2022/11/23 20:39:01;;;;;;;5.77;3.50;;;;;;;10.10;54.47;98690.88;10493915;28;20249;-67
2022/11/23 20:44:10;;;;;;;5.73;3.57;;;;;;;9.68;56.13;98722.31;10507648;28;20239;-67
2022/11/23 20:49:12;;;;;;;7.40;3.97;;;;;;;9.01;58.20;98760.38;10500335;28;20611;-66
2022/11/23 20:54:14;;;;;;;7.10;3.63;;;;;;;8.82;57.84;98787.72;10504354;28;20231;-65
2022/11/23 20:59:16;;;;;;;6.67;3.30;;;;;;;9.14;56.50;98762.25;10492505;28;20246;-66
2022/11/23 21:04:17;;;;;;;8.20;3.93;;;;;;;9.80;55.91;98746.56;10501641;28;20226;-67
2022/11/23 21:09:19;;;;;;;5.80;3.40;;;;;;;7.46;61.00;98802.00;10498348;28;20231;-65
2022/11/23 21:14:24;;;;;;;6.40;3.73;;;;;;;8.04;60.58;98803.81;10500196;28;20659;-68
2022/11/23 21:19:28;;;;;;;5.93;3.27;;;;;;;8.62;59.98;98774.28;10496836;28;20232;-65
2022/11/23 21:24:29;;;;;;;6.60;3.83;;;;;;;7.82;60.72;98824.28;10483985;28;20230;-65
2022/11/23 21:29:32;;;;;;;9.20;4.10;;;;;;;7.99;60.46;98827.53;10489285;28;20324;-67
2022/11/23 21:34:34;;;;;;;7.07;3.67;;;;;;;9.65;57.84;98742.25;10489554;28;20685;-67
2022/11/23 21:39:38;;;;;;;12.07;4.30;;;;;;;8.21;60.21;98839.00;10505038;28;20899;-66
2022/11/23 21:44:39;;;;;;;9.23;4.47;;;;;;;9.64;56.99;98780.69;10490437;28;20963;-66
2022/11/23 21:49:41;;;;;;;8.77;3.90;;;;;;;9.11;57.30;98823.22;10486649;28;20200;-66
2022/11/23 21:54:43;;;;;;;7.70;3.70;;;;;;;10.03;56.33;98813.84;10501660;28;20231;-66
2022/11/23 21:59:49;;;;;;;8.73;4.07;;;;;;;9.65;55.61;98856.28;10492438;28;20236;-66
2022/11/23 22:04:51;;;;;;;6.63;3.57;;;;;;;10.02;55.57;98854.13;10498445;28;20264;-66
2022/11/23 22:09:52;;;;;;;9.00;4.30;;;;;;;9.29;56.50;98932.13;10495789;28;20234;-66
2022/11/23 22:14:54;;;;;;;8.17;4.00;;;;;;;9.81;54.60;98887.97;10489887;28;20233;-66
2022/11/23 22:19:56;;;;;;;9.23;4.53;;;;;;;9.47;55.41;98932.44;10494146;28;20237;-66
2022/11/23 22:24:58;;;;;;;10.63;5.47;;;;;;;8.75;56.67;98974.41;10500340;28;20743;-66
2022/11/23 22:29:59;;;;;;;8.93;4.70;;;;;;;9.95;54.58;98920.94;10496868;28;20290;-66
2022/11/23 22:35:01;;;;;;;4.67;3.60;;;;;;;8.17;57.93;99006.47;10496581;28;20239;-67
2022/11/23 22:40:04;;;;;;;8.37;4.10;;;;;;;8.11;58.61;99001.88;10499938;28;20235;-66
2022/11/23 22:45:07;;;;;;;9.07;3.60;;;;;;;8.55;57.50;98958.25;10495048;28;20232;-66
2022/11/23 22:50:08;;;;;;;7.73;4.13;;;;;;;8.22;57.54;98974.75;10480350;28;20652;-67
2022/11/23 22:55:10;;;;;;;11.13;3.50;;;;;;;7.07;60.48;98977.91;10461182;28;20235;-65
2022/11/23 23:00:12;;;;;;;9.47;4.00;;;;;;;7.29;60.80;99006.31;10473566;28;20214;-67
2022/11/23 23:05:14;;;;;;;7.57;3.67;;;;;;;8.35;58.48;98981.22;10433374;28;20226;-66
2022/11/23 23:10:15;;;;;;;7.97;4.07;;;;;;;8.36;57.99;98973.03;10462419;28;20215;-68
2022/11/23 23:15:17;;;;;;;6.53;3.87;;;;;;;8.69;58.02;98998.38;10465130;28;20226;-66
2022/11/23 23:20:19;;;;;;;7.53;4.10;;;;;;;7.46;59.62;99038.06;10470406;28;20231;-68
2022/11/23 23:25:20;;;;;;;8.90;4.23;;;;;;;7.05;60.42;99033.13;10472091;28;20238;-68
2022/11/23 23:30:23;;;;;;;11.80;3.60;;;;;;;7.68;59.11;99031.84;10458730;28;20238;-67
2022/11/23 23:35:24;;;;;;;9.00;3.97;;;;;;;7.53;59.08;99047.00;10458168;28;20835;-68
2022/11/23 23:40:26;;;;;;;9.73;4.00;;;;;;;7.48;59.03;99062.69;10494535;28;20607;-66
2022/11/23 23:45:27;;;;;;;6.77;3.60;;;;;;;7.46;58.91;99070.00;10497678;28;20284;-66
2022/11/23 23:50:29;;;;;;;13.80;4.90;;;;;;;8.77;56.91;99032.91;10490029;28;20237;-68
2022/11/23 23:55:31;;;;;;;10.80;4.07;;;;;;;8.47;57.62;99043.69;10492277;28;20246;-66
